Time;durP1;ratioP1;P1;durP2;ratioP2;P2;SDS_P1;SDS_P2;PMS_P1;PMS_P2;Temp;Humidity;BMP_temperature;BMP_pressure;BME280_temperature;BME280_humidity;BME280_pressure;Samples;Min_cycle;Max_cycle;Signal;HPM_P1;HPM_P2
2021/12/18 00:01:17;;;;;;;19.30;15.30;;;5.40;99.90;;;;;;5075798;28;20464;-57
2021/12/18 00:03:44;;;;;;;23.03;16.20;;;5.40;99.90;;;;;;5075758;28;20440;-57
2021/12/18 00:06:11;;;;;;;17.50;15.20;;;5.40;99.90;;;;;;5075505;28;20958;-58
2021/12/18 00:08:40;;;;;;;23.17;16.23;;;5.30;99.90;;;;;;5075912;28;20547;-57
2021/12/18 00:11:07;;;;;;;20.83;14.57;;;5.20;99.90;;;;;;5075377;28;20484;-58
2021/12/18 00:13:34;;;;;;;23.30;16.90;;;5.10;99.90;;;;;;5075382;28;20458;-58
2021/12/18 00:16:02;;;;;;;23.90;15.97;;;5.30;99.90;;;;;;5075636;28;20474;-56
2021/12/18 00:18:31;;;;;;;23.60;16.53;;;5.30;99.90;;;;;;5075690;28;20513;-56
2021/12/18 00:20:58;;;;;;;23.90;17.43;;;5.40;99.90;;;;;;5075504;28;20464;-56
2021/12/18 00:23:26;;;;;;;20.83;15.90;;;5.40;99.90;;;;;;5075429;28;20917;-56
2021/12/18 00:25:53;;;;;;;21.80;15.63;;;5.40;99.90;;;;;;5075071;28;20521;-56
2021/12/18 00:28:20;;;;;;;23.33;16.50;;;5.30;99.90;;;;;;5075506;28;20479;-56
2021/12/18 00:30:48;;;;;;;22.23;15.50;;;5.30;99.90;;;;;;5074859;28;20970;-56
2021/12/18 00:33:15;;;;;;;20.13;17.40;;;5.30;99.90;;;;;;5074963;28;21028;-56
2021/12/18 00:35:44;;;;;;;25.60;16.27;;;5.30;99.90;;;;;;5075089;28;20523;-56
2021/12/18 00:38:11;;;;;;;23.10;15.63;;;5.30;99.90;;;;;;5074708;28;20909;-56
2021/12/18 00:40:46;;;;;;;19.40;14.90;;;5.20;99.90;;;;;;5074741;28;20840;-56
2021/12/18 00:43:24;;;;;;;18.93;15.20;;;5.10;99.90;;;;;;5075339;28;20428;-56
2021/12/18 00:45:52;;;;;;;21.47;15.60;;;5.10;99.90;;;;;;5075313;28;20478;-56
2021/12/18 00:48:20;;;;;;;21.13;16.73;;;5.20;99.90;;;;;;5074784;28;20453;-56
2021/12/18 00:50:49;;;;;;;27.03;17.47;;;5.20;99.90;;;;;;5074543;28;20997;-56
2021/12/18 00:53:17;;;;;;;21.47;15.80;;;5.10;99.90;;;;;;5075227;28;20556;-56
2021/12/18 00:55:45;;;;;;;21.13;15.90;;;5.10;99.90;;;;;;5074646;28;20447;-56
2021/12/18 00:58:12;;;;;;;22.47;16.93;;;5.10;99.90;;;;;;5074709;28;20444;-56
2021/12/18 01:00:41;;;;;;;22.83;16.70;;;5.20;99.90;;;;;;5074473;28;20496;-56
2021/12/18 01:03:16;;;;;;;23.60;18.10;;;5.20;99.90;;;;;;5074488;28;20456;-56
2021/12/18 01:05:44;;;;;;;19.67;15.37;;;5.30;99.90;;;;;;5074463;28;20501;-56
2021/12/18 01:08:13;;;;;;;20.63;15.20;;;5.30;99.90;;;;;;5074956;28;20462;-57
2021/12/18 01:10:58;;;;;;;22.90;16.67;;;5.30;99.90;;;;;;5074134;28;20575;-56
2021/12/18 01:13:30;;;;;;;25.17;16.83;;;5.20;99.90;;;;;;5074775;28;20494;-56
2021/12/18 01:16:06;;;;;;;21.50;16.43;;;5.20;99.90;;;;;;5074389;28;20433;-56
2021/12/18 01:24:06;;;;;;;23.93;18.27;;;5.00;99.90;;;;;;5074216;28;20408;-56
2021/12/18 01:26:33;;;;;;;24.73;16.53;;;5.10;99.90;;;;;;5074300;28;20425;-56
2021/12/18 01:29:00;;;;;;;21.33;16.50;;;5.10;99.90;;;;;;5074299;28;20523;-56
2021/12/18 01:31:27;;;;;;;19.27;15.43;;;5.10;99.90;;;;;;5073993;28;20484;-57
2021/12/18 01:33:55;;;;;;;18.63;14.23;;;5.10;99.90;;;;;;5073682;28;20893;-56
2021/12/18 01:36:22;;;;;;;22.93;17.70;;;5.00;99.90;;;;;;5074197;28;20453;-56
2021/12/18 01:38:50;;;;;;;21.87;15.80;;;5.00;99.90;;;;;;5073454;28;20484;-56
2021/12/18 01:41:19;;;;;;;20.80;16.07;;;5.00;99.90;;;;;;5073810;28;20464;-56
2021/12/18 01:46:48;;;;;;;23.37;17.67;;;5.00;99.90;;;;;;5037097;28;20931;-56
2021/12/18 01:52:05;;;;;;;22.60;16.50;;;5.00;99.90;;;;;;5039966;28;20508;-56
2021/12/18 01:54:32;;;;;;;22.90;15.60;;;5.00;99.90;;;;;;5073533;28;20932;-57
2021/12/18 01:57:00;;;;;;;19.97;14.73;;;5.00;99.90;;;;;;5073331;28;20935;-56
2021/12/18 01:59:35;;;;;;;22.60;16.50;;;4.80;99.90;;;;;;5073552;28;20455;-56
2021/12/18 02:02:03;;;;;;;20.43;16.13;;;4.80;99.90;;;;;;5073410;28;20421;-56
2021/12/18 02:04:30;;;;;;;23.40;16.67;;;4.80;99.90;;;;;;5073204;28;20449;-56
2021/12/18 02:07:00;;;;;;;18.77;15.07;;;4.80;99.90;;;;;;5073292;28;20448;-56
2021/12/18 02:09:36;;;;;;;20.47;16.17;;;4.60;99.90;;;;;;5073099;28;20428;-56
2021/12/18 02:12:05;;;;;;;22.43;17.20;;;4.50;99.90;;;;;;5073489;28;20547;-56
2021/12/18 02:19:33;;;;;;;21.30;16.00;;;4.50;99.90;;;;;;5073238;28;20449;-56
2021/12/18 02:20:23;;;;;;;22.50;15.70;;;4.90;99.90;;;;;;5072830;28;20447;-56
2021/12/18 02:22:51;;;;;;;22.43;16.73;;;5.00;99.90;;;;;;5073176;28;20425;-56
2021/12/18 02:25:20;;;;;;;21.10;15.07;;;4.90;99.90;;;;;;5073152;28;20799;-56
2021/12/18 02:27:49;;;;;;;22.97;16.43;;;4.70;99.90;;;;;;5072859;28;20445;-58
2021/12/18 02:30:17;;;;;;;20.83;15.97;;;4.70;99.90;;;;;;5073139;28;20478;-56
2021/12/18 02:32:44;;;;;;;19.40;14.97;;;4.70;99.90;;;;;;5072653;28;20928;-56
2021/12/18 02:35:26;;;;;;;22.87;16.50;;;4.80;99.90;;;;;;5073137;28;20802;-56
2021/12/18 02:38:07;;;;;;;21.23;18.40;;;4.70;99.90;;;;;;5072619;28;20484;-56
2021/12/18 02:40:59;;;;;;;21.63;16.13;;;4.70;99.90;;;;;;5073078;28;20537;-56
2021/12/18 02:43:32;;;;;;;19.10;14.83;;;4.70;99.90;;;;;;5072686;28;20896;-56
2021/12/18 02:46:00;;;;;;;19.30;15.80;;;4.70;99.90;;;;;;5073124;28;20783;-56
2021/12/18 02:48:28;;;;;;;26.83;17.43;;;4.70;99.90;;;;;;5072603;28;20964;-56
2021/12/18 02:50:57;;;;;;;23.07;18.00;;;4.60;99.90;;;;;;5072568;28;20468;-56
2021/12/18 02:53:25;;;;;;;23.80;15.60;;;4.70;99.90;;;;;;5072698;28;20452;-56
2021/12/18 02:55:57;;;;;;;25.40;16.80;;;4.70;99.90;;;;;;5072710;28;20452;-56
2021/12/18 02:58:25;;;;;;;20.47;15.90;;;4.70;99.90;;;;;;5072894;28;20547;-56
2021/12/18 03:00:54;;;;;;;19.97;16.80;;;4.60;99.90;;;;;;5072669;28;20499;-56
2021/12/18 03:03:25;;;;;;;20.23;16.00;;;4.60;99.90;;;;;;5072920;28;20527;-56
2021/12/18 03:06:07;;;;;;;22.00;16.20;;;4.60;99.90;;;;;;5072842;28;20757;-56
2021/12/18 03:08:44;;;;;;;22.60;16.17;;;4.50;99.90;;;;;;5072829;28;20456;-56
2021/12/18 03:22:53;;;;;;;28.40;18.83;;;4.50;99.90;;;;;;5072258;28;20431;-56
2021/12/18 03:25:23;;;;;;;18.87;14.90;;;4.50;99.90;;;;;;5072457;28;20435;-56
2021/12/18 03:27:51;;;;;;;22.27;15.00;;;4.50;99.90;;;;;;5072235;28;20552;-56
2021/12/18 03:30:20;;;;;;;22.20;16.07;;;4.40;99.90;;;;;;5072471;28;20464;-56
2021/12/18 03:32:47;;;;;;;24.63;17.73;;;4.30;99.90;;;;;;5074501;28;20618;-56
2021/12/18 03:35:15;;;;;;;23.53;16.40;;;4.30;99.90;;;;;;5076099;28;20874;-56
2021/12/18 03:37:44;;;;;;;27.70;18.80;;;4.20;99.90;;;;;;5075893;28;20491;-56
2021/12/18 03:40:14;;;;;;;24.00;16.13;;;4.20;99.90;;;;;;5075992;28;20989;-56
2021/12/18 03:42:41;;;;;;;26.93;16.77;;;4.20;99.90;;;;;;5076147;28;20946;-56
2021/12/18 03:45:10;;;;;;;22.50;15.33;;;4.30;99.90;;;;;;5076191;28;20557;-56
2021/12/18 03:47:37;;;;;;;23.50;16.23;;;4.30;99.90;;;;;;5075758;28;20479;-56
2021/12/18 03:50:06;;;;;;;25.13;16.10;;;4.50;99.90;;;;;;5076151;28;20471;-57
2021/12/18 03:52:33;;;;;;;28.00;15.53;;;4.60;99.90;;;;;;5075681;28;20480;-56
2021/12/18 03:55:02;;;;;;;23.27;16.57;;;4.50;99.90;;;;;;5076043;28;20452;-56
2021/12/18 03:57:29;;;;;;;20.47;13.77;;;4.30;99.90;;;;;;5076065;28;20450;-56
2021/12/18 03:59:56;;;;;;;21.77;15.47;;;4.20;99.90;;;;;;5075876;28;20862;-56
2021/12/18 04:02:23;;;;;;;21.67;14.40;;;4.10;99.90;;;;;;5075807;28;20448;-56
2021/12/18 04:04:51;;;;;;;20.27;15.57;;;4.20;99.90;;;;;;5075993;28;20450;-56
2021/12/18 04:07:18;;;;;;;24.80;16.43;;;4.20;99.90;;;;;;5075768;28;20466;-56
2021/12/18 04:09:47;;;;;;;24.23;15.77;;;4.10;99.90;;;;;;5075478;28;20475;-56
2021/12/18 04:12:16;;;;;;;30.10;18.33;;;3.90;99.90;;;;;;5075510;28;20480;-56
2021/12/18 04:14:43;;;;;;;27.70;15.60;;;3.90;99.90;;;;;;5075795;28;20992;-56
2021/12/18 04:17:11;;;;;;;21.60;14.33;;;3.90;99.90;;;;;;5075674;28;20837;-56
2021/12/18 04:19:38;;;;;;;22.07;15.10;;;4.00;99.90;;;;;;5075575;28;20871;-56
2021/12/18 04:22:05;;;;;;;25.40;15.80;;;4.00;99.90;;;;;;5075382;28;20444;-56
2021/12/18 04:24:32;;;;;;;22.67;16.17;;;4.10;99.90;;;;;;5075246;28;21002;-56
2021/12/18 04:27:00;;;;;;;22.33;14.40;;;4.10;99.90;;;;;;5075471;28;20451;-56
2021/12/18 04:29:28;;;;;;;18.60;13.70;;;4.10;99.90;;;;;;5075403;28;20444;-57
2021/12/18 04:31:56;;;;;;;23.37;15.73;;;4.00;99.90;;;;;;5075313;28;20487;-56
2021/12/18 04:34:23;;;;;;;23.27;15.70;;;3.90;99.90;;;;;;5075252;28;20455;-56
2021/12/18 04:36:50;;;;;;;19.50;12.90;;;3.80;99.90;;;;;;5075101;28;20839;-56
2021/12/18 04:39:17;;;;;;;22.20;14.80;;;3.70;99.90;;;;;;5074938;28;20472;-56
2021/12/18 04:41:49;;;;;;;17.57;12.77;;;3.70;99.90;;;;;;5075102;28;20460;-56
2021/12/18 04:44:17;;;;;;;23.80;13.37;;;3.80;99.90;;;;;;5074704;28;20463;-56
2021/12/18 04:46:46;;;;;;;25.63;16.37;;;3.90;99.90;;;;;;5075139;28;20440;-56
2021/12/18 04:49:17;;;;;;;23.70;14.87;;;3.90;99.90;;;;;;5075117;28;20445;-56
2021/12/18 04:51:45;;;;;;;22.30;16.20;;;3.90;99.90;;;;;;5074803;28;20492;-56
2021/12/18 04:54:12;;;;;;;19.20;13.30;;;4.00;99.90;;;;;;5074813;28;20864;-56
2021/12/18 04:56:39;;;;;;;23.43;13.73;;;4.10;99.90;;;;;;5074939;28;20444;-56
2021/12/18 04:59:06;;;;;;;21.13;14.37;;;4.00;99.90;;;;;;5074686;28;20421;-56
2021/12/18 05:01:37;;;;;;;19.97;13.40;;;3.90;99.90;;;;;;5074592;28;20555;-56
2021/12/18 05:04:09;;;;;;;19.43;13.90;;;3.90;99.90;;;;;;5074894;28;20461;-56
2021/12/18 05:06:38;;;;;;;19.13;13.60;;;4.00;99.90;;;;;;5074357;28;20432;-57
2021/12/18 05:09:05;;;;;;;19.60;14.50;;;4.00;99.90;;;;;;5074620;28;20475;-56
2021/12/18 05:11:33;;;;;;;23.47;15.03;;;3.90;99.90;;;;;;5074648;28;20470;-56
2021/12/18 05:14:00;;;;;;;27.87;15.50;;;4.00;99.90;;;;;;5074582;28;20444;-56
2021/12/18 05:16:27;;;;;;;18.60;13.50;;;4.00;99.90;;;;;;5074485;28;20448;-56
2021/12/18 05:18:54;;;;;;;24.10;14.63;;;4.10;99.90;;;;;;5074217;28;20984;-56
2021/12/18 05:21:23;;;;;;;19.00;13.03;;;4.00;99.90;;;;;;5074316;28;20514;-56
2021/12/18 05:23:50;;;;;;;19.73;13.90;;;4.10;99.90;;;;;;5074380;28;20885;-56
2021/12/18 05:26:18;;;;;;;23.43;15.07;;;4.10;99.90;;;;;;5074143;28;20459;-56
2021/12/18 05:28:45;;;;;;;19.30;13.60;;;4.20;99.90;;;;;;5074047;28;20444;-56
2021/12/18 05:31:16;;;;;;;17.80;12.87;;;4.10;99.90;;;;;;5074073;28;20464;-56
2021/12/18 05:33:44;;;;;;;21.90;14.10;;;4.00;99.90;;;;;;5073952;28;20556;-56
2021/12/18 05:36:30;;;;;;;20.93;13.70;;;4.10;99.90;;;;;;5074104;28;20452;-56
2021/12/18 05:39:01;;;;;;;20.83;13.90;;;4.10;99.90;;;;;;5073537;28;20597;-56
2021/12/18 05:41:28;;;;;;;18.93;12.90;;;4.10;99.90;;;;;;5073924;28;20461;-56
2021/12/18 05:43:55;;;;;;;19.43;13.80;;;4.10;99.90;;;;;;5074096;28;20448;-56
2021/12/18 05:46:22;;;;;;;19.87;13.47;;;4.20;99.90;;;;;;5073687;28;20539;-56
2021/12/18 05:48:50;;;;;;;17.80;12.43;;;4.10;99.90;;;;;;5073504;28;20878;-56
2021/12/18 05:51:17;;;;;;;16.87;12.03;;;4.00;99.90;;;;;;5073755;28;20468;-56
2021/12/18 05:53:44;;;;;;;16.60;12.70;;;4.10;99.90;;;;;;5073487;28;20545;-56
2021/12/18 05:56:13;;;;;;;21.20;13.20;;;4.10;99.90;;;;;;5072356;28;20452;-56
2021/12/18 05:58:43;;;;;;;16.70;12.33;;;4.00;99.90;;;;;;5073638;28;20450;-56
2021/12/18 06:01:12;;;;;;;21.77;13.03;;;3.90;99.90;;;;;;5073742;28;20911;-56
2021/12/18 06:03:39;;;;;;;15.83;11.63;;;4.00;99.90;;;;;;5073605;28;20448;-56
2021/12/18 06:06:06;;;;;;;24.00;12.80;;;3.90;99.90;;;;;;5073618;28;20444;-56
2021/12/18 06:08:35;;;;;;;19.00;11.07;;;4.00;99.90;;;;;;5073850;28;20455;-56
2021/12/18 06:11:07;;;;;;;17.33;12.20;;;3.90;99.90;;;;;;5073401;28;20468;-57
2021/12/18 06:13:36;;;;;;;16.07;12.20;;;3.60;99.90;;;;;;5073506;28;20479;-56
2021/12/18 06:16:05;;;;;;;15.57;10.73;;;3.70;99.90;;;;;;5073590;28;20459;-57
2021/12/18 06:18:34;;;;;;;18.90;11.63;;;3.80;99.90;;;;;;5073287;28;20459;-56
2021/12/18 06:21:01;;;;;;;17.10;12.23;;;3.80;99.90;;;;;;5072973;28;20975;-56
2021/12/18 06:23:28;;;;;;;21.20;12.50;;;3.80;99.90;;;;;;5073353;28;20445;-56
2021/12/18 06:25:56;;;;;;;19.23;12.47;;;3.80;99.90;;;;;;5073061;28;20446;-56
2021/12/18 06:28:23;;;;;;;18.67;12.60;;;3.80;99.90;;;;;;5073261;28;20531;-56
2021/12/18 06:30:51;;;;;;;18.20;12.27;;;3.80;99.90;;;;;;5073309;28;20468;-56
2021/12/18 06:33:19;;;;;;;19.17;13.03;;;3.80;99.90;;;;;;5072869;28;20475;-56
2021/12/18 06:35:47;;;;;;;16.40;11.43;;;3.80;99.90;;;;;;5072933;28;20463;-56
2021/12/18 06:38:14;;;;;;;16.50;11.77;;;3.90;99.90;;;;;;5072793;28;20503;-56
2021/12/18 06:40:41;;;;;;;16.47;10.93;;;3.90;99.90;;;;;;5073157;28;20475;-56
2021/12/18 06:43:08;;;;;;;17.00;12.30;;;3.90;99.90;;;;;;5072967;28;20444;-56
2021/12/18 06:45:35;;;;;;;15.33;10.53;;;4.00;99.90;;;;;;5073024;28;20471;-56
2021/12/18 06:48:05;;;;;;;17.10;12.87;;;3.90;99.90;;;;;;5072823;28;20444;-56
2021/12/18 06:50:32;;;;;;;16.60;11.90;;;4.00;99.90;;;;;;5072607;28;20464;-56
2021/12/18 06:52:59;;;;;;;13.13;8.63;;;3.90;99.90;;;;;;5072545;28;20998;-56
2021/12/18 06:55:27;;;;;;;12.57;9.10;;;3.70;99.90;;;;;;5072859;28;20454;-56
2021/12/18 06:57:54;;;;;;;13.00;8.50;;;3.70;99.90;;;;;;5073032;28;20444;-56
2021/12/18 07:00:23;;;;;;;11.57;8.83;;;3.80;99.90;;;;;;5072481;28;20469;-57
2021/12/18 07:02:50;;;;;;;14.30;9.47;;;3.80;99.90;;;;;;5072653;28;20451;-56
2021/12/18 07:05:19;;;;;;;11.80;8.80;;;3.80;99.90;;;;;;5072924;28;20453;-57
2021/12/18 07:07:46;;;;;;;20.03;10.63;;;3.90;99.90;;;;;;5074876;28;20456;-56
2021/12/18 07:10:15;;;;;;;17.87;10.93;;;3.80;99.90;;;;;;5076539;28;20974;-57
2021/12/18 07:12:43;;;;;;;19.27;9.60;;;3.80;99.90;;;;;;5076807;28;20464;-57
2021/12/18 07:15:12;;;;;;;14.13;10.93;;;3.80;99.90;;;;;;5076525;28;20444;-57
2021/12/18 07:17:39;;;;;;;13.13;8.87;;;3.90;99.90;;;;;;5076644;28;20539;-57
2021/12/18 07:20:09;;;;;;;13.70;9.50;;;3.80;99.90;;;;;;5076459;28;20472;-57
2021/12/18 07:22:38;;;;;;;14.20;9.60;;;3.90;99.90;;;;;;5076342;28;20753;-58
2021/12/18 07:25:06;;;;;;;13.73;10.00;;;4.00;99.90;;;;;;5076434;28;20433;-57
2021/12/18 07:27:33;;;;;;;15.60;10.90;;;3.80;99.90;;;;;;5076716;28;20530;-57
2021/12/18 07:30:00;;;;;;;14.23;9.70;;;3.80;99.90;;;;;;5076317;28;20560;-57
2021/12/18 07:32:28;;;;;;;14.53;10.37;;;3.90;99.90;;;;;;5076380;28;20643;-58
2021/12/18 07:34:56;;;;;;;17.77;10.40;;;4.10;99.90;;;;;;5076415;28;20452;-58
2021/12/18 07:37:24;;;;;;;13.63;9.20;;;3.90;99.90;;;;;;5075890;28;20870;-57
2021/12/18 07:39:53;;;;;;;15.20;9.87;;;3.80;99.90;;;;;;5075976;28;20475;-57
2021/12/18 07:42:20;;;;;;;15.30;8.90;;;3.70;99.90;;;;;;5076092;28;20436;-57
2021/12/18 07:44:48;;;;;;;15.00;9.30;;;3.70;99.90;;;;;;5076107;28;20455;-57
2021/12/18 07:47:15;;;;;;;17.60;11.00;;;3.80;99.90;;;;;;5075880;28;20544;-56
2021/12/18 07:49:42;;;;;;;15.03;11.23;;;3.80;99.90;;;;;;5075723;28;20931;-57
2021/12/18 07:52:09;;;;;;;16.70;10.20;;;3.80;99.90;;;;;;5075778;28;20458;-57
2021/12/18 07:54:36;;;;;;;14.27;10.90;;;3.90;99.90;;;;;;5075925;28;20480;-57
2021/12/18 07:57:05;;;;;;;15.60;9.90;;;3.90;99.90;;;;;;5075603;28;20448;-57
2021/12/18 07:59:32;;;;;;;16.97;10.33;;;3.90;99.90;;;;;;5075543;28;20807;-57
2021/12/18 08:02:00;;;;;;;13.10;9.87;;;4.00;99.90;;;;;;5075787;28;20455;-57
2021/12/18 08:04:28;;;;;;;13.97;8.80;;;4.10;99.90;;;;;;5075265;28;20926;-57
2021/12/18 08:06:55;;;;;;;14.40;10.10;;;4.00;99.90;;;;;;5075731;28;20472;-57
2021/12/18 08:09:22;;;;;;;13.43;8.83;;;4.00;99.90;;;;;;5075418;28;20428;-57
2021/12/18 08:11:49;;;;;;;14.80;10.43;;;4.00;99.90;;;;;;5088059;28;20542;-57
2021/12/18 08:14:18;;;;;;;15.87;9.53;;;4.00;99.90;;;;;;5095867;28;20485;-57
2021/12/18 08:16:47;;;;;;;16.20;9.60;;;3.90;99.90;;;;;;5095668;28;20454;-57
2021/12/18 08:19:14;;;;;;;15.00;8.57;;;4.00;99.90;;;;;;5094336;28;20481;-57
2021/12/18 08:21:41;;;;;;;12.60;9.23;;;4.00;99.90;;;;;;5095183;28;20486;-57
2021/12/18 08:24:08;;;;;;;15.63;10.23;;;4.20;99.90;;;;;;5095581;28;20434;-57
2021/12/18 08:26:35;;;;;;;15.97;10.20;;;4.10;99.90;;;;;;5094896;28;20448;-57
2021/12/18 08:29:03;;;;;;;12.20;9.47;;;4.10;99.90;;;;;;5092312;28;20485;-57
2021/12/18 08:31:31;;;;;;;16.77;9.33;;;4.30;99.90;;;;;;5095441;28;20474;-57
2021/12/18 08:33:58;;;;;;;12.30;9.50;;;4.20;99.90;;;;;;5092751;28;20486;-57
2021/12/18 08:36:25;;;;;;;14.97;10.40;;;4.40;99.90;;;;;;5094839;28;20961;-58
2021/12/18 08:38:52;;;;;;;18.43;10.13;;;4.30;99.90;;;;;;5080947;28;20499;-58
2021/12/18 08:41:21;;;;;;;14.57;9.67;;;4.30;99.90;;;;;;5093602;28;20465;-57
2021/12/18 08:43:49;;;;;;;14.77;9.10;;;4.30;99.90;;;;;;5078307;28;20527;-58
2021/12/18 08:46:17;;;;;;;16.63;10.53;;;4.30;99.90;;;;;;5074823;28;20440;-58
2021/12/18 08:48:45;;;;;;;15.03;10.10;;;4.20;99.90;;;;;;5081944;28;20534;-58
2021/12/18 08:51:13;;;;;;;16.47;10.43;;;4.30;99.90;;;;;;5094651;28;20541;-57
2021/12/18 08:53:40;;;;;;;16.47;11.03;;;4.20;99.90;;;;;;5094260;28;20990;-57
2021/12/18 08:56:07;;;;;;;15.70;11.43;;;4.20;99.90;;;;;;5085101;28;20470;-57
2021/12/18 08:58:34;;;;;;;15.30;10.77;;;4.20;99.90;;;;;;5086098;28;20436;-58
2021/12/18 09:01:02;;;;;;;16.27;10.90;;;4.40;99.90;;;;;;5092247;28;20470;-58
2021/12/18 09:03:29;;;;;;;14.27;10.03;;;4.30;99.90;;;;;;5085220;28;20935;-56
2021/12/18 09:05:57;;;;;;;12.53;10.30;;;4.50;99.90;;;;;;5084428;28;20930;-58
2021/12/18 09:08:25;;;;;;;15.10;9.97;;;4.50;99.90;;;;;;5077623;28;20462;-58
2021/12/18 09:10:52;;;;;;;14.87;9.80;;;4.50;99.90;;;;;;5090429;28;20467;-58
2021/12/18 09:13:19;;;;;;;12.13;9.60;;;4.60;99.90;;;;;;5084644;28;20974;-59
2021/12/18 09:15:47;;;;;;;13.70;9.60;;;4.60;99.90;;;;;;5082493;28;20458;-58
2021/12/18 09:18:14;;;;;;;19.70;11.87;;;4.80;99.90;;;;;;5078854;28;20509;-59
2021/12/18 09:20:44;;;;;;;17.33;11.17;;;4.80;99.90;;;;;;5083538;28;20476;-60
2021/12/18 09:23:16;;;;;;;16.67;9.97;;;4.90;99.90;;;;;;5079420;28;20504;-60
2021/12/18 09:25:43;;;;;;;11.13;8.97;;;4.80;99.90;;;;;;5080433;28;20535;-60
2021/12/18 09:28:10;;;;;;;15.23;10.60;;;4.80;99.90;;;;;;5083341;28;20443;-60
2021/12/18 09:30:38;;;;;;;21.20;11.40;;;4.80;99.90;;;;;;5082520;28;20984;-60
2021/12/18 09:33:05;;;;;;;17.30;9.77;;;4.90;99.90;;;;;;5080589;28;20448;-60
2021/12/18 09:35:32;;;;;;;14.43;10.63;;;5.00;99.90;;;;;;5082571;28;20454;-59
2021/12/18 09:38:00;;;;;;;19.70;12.43;;;5.00;99.90;;;;;;5082821;28;20508;-59
2021/12/18 09:40:29;;;;;;;16.37;10.93;;;5.00;99.90;;;;;;5080804;28;20572;-60
2021/12/18 09:42:56;;;;;;;17.07;11.93;;;5.00;99.90;;;;;;5084623;28;20452;-59
2021/12/18 09:45:25;;;;;;;16.60;11.00;;;4.90;99.90;;;;;;5080536;28;20740;-60
2021/12/18 09:47:52;;;;;;;20.00;11.47;;;4.90;99.90;;;;;;5082000;28;20479;-60
2021/12/18 09:50:22;;;;;;;21.10;12.20;;;4.80;99.90;;;;;;5081665;28;20498;-60
2021/12/18 09:52:50;;;;;;;21.47;13.73;;;4.60;99.90;;;;;;5077693;28;20551;-59
2021/12/18 09:55:18;;;;;;;16.17;10.50;;;4.70;99.90;;;;;;5083564;28;20510;-60
2021/12/18 09:57:47;;;;;;;13.30;10.87;;;4.70;99.90;;;;;;5081915;28;20463;-61
2021/12/18 10:00:18;;;;;;;17.60;12.73;;;4.90;99.90;;;;;;5079742;28;20468;-60
2021/12/18 10:02:45;;;;;;;18.30;11.90;;;4.90;99.90;;;;;;5085623;28;20454;-59
2021/12/18 10:05:21;;;;;;;18.70;12.60;;;4.80;99.90;;;;;;5078448;28;20455;-60
2021/12/18 10:08:11;;;;;;;18.27;12.60;;;4.70;99.90;;;;;;5081537;28;20448;-59
2021/12/18 10:10:40;;;;;;;18.33;11.80;;;4.60;99.90;;;;;;5079671;28;20480;-59
2021/12/18 10:13:10;;;;;;;18.20;10.20;;;4.70;99.90;;;;;;5077284;28;20448;-59
2021/12/18 10:15:38;;;;;;;15.10;10.40;;;4.80;99.90;;;;;;5080402;28;20969;-60
2021/12/18 10:18:08;;;;;;;15.27;10.13;;;4.80;99.90;;;;;;5083317;28;20455;-59
2021/12/18 10:20:36;;;;;;;14.93;9.97;;;4.80;99.90;;;;;;5079749;28;20482;-60
2021/12/18 10:23:05;;;;;;;21.37;10.30;;;5.00;99.90;;;;;;5083330;28;20443;-60
2021/12/18 10:25:38;;;;;;;15.73;10.80;;;5.30;99.90;;;;;;5079916;28;20447;-60
2021/12/18 10:28:13;;;;;;;15.63;10.70;;;5.30;99.90;;;;;;5073884;28;20576;-60
2021/12/18 10:30:45;;;;;;;16.47;11.13;;;5.30;99.90;;;;;;5081874;28;20549;-60
2021/12/18 10:33:13;;;;;;;14.70;9.40;;;5.10;99.90;;;;;;5077009;28;20450;-60
2021/12/18 10:35:43;;;;;;;16.60;11.20;;;5.00;99.90;;;;;;5073304;28;20466;-60
2021/12/18 10:38:31;;;;;;;14.67;10.87;;;5.00;99.90;;;;;;5073512;28;20510;-61
2021/12/18 10:40:58;;;;;;;19.43;12.30;;;4.90;99.90;;;;;;5083170;28;20483;-59
2021/12/18 10:43:27;;;;;;;13.00;9.67;;;5.00;99.90;;;;;;5088746;28;20786;-60
2021/12/18 10:45:54;;;;;;;16.20;10.40;;;5.30;99.90;;;;;;5072612;28;20972;-59
2021/12/18 10:48:21;;;;;;;19.83;12.63;;;5.40;99.90;;;;;;5089249;28;20467;-59
2021/12/18 10:50:50;;;;;;;15.33;10.40;;;5.40;99.90;;;;;;5082013;28;20467;-59
2021/12/18 10:53:19;;;;;;;17.20;10.57;;;5.50;99.90;;;;;;5089228;28;20446;-59
2021/12/18 10:55:49;;;;;;;14.53;10.60;;;5.40;99.90;;;;;;5089251;28;20457;-60
2021/12/18 10:58:19;;;;;;;14.80;11.20;;;5.40;99.90;;;;;;5076072;28;20452;-59
2021/12/18 11:00:57;;;;;;;12.37;9.13;;;5.30;99.90;;;;;;5080172;28;20464;-59
2021/12/18 11:03:43;;;;;;;14.97;11.03;;;5.30;99.90;;;;;;5072447;28;21017;-59
2021/12/18 11:06:17;;;;;;;14.13;10.90;;;5.20;99.90;;;;;;5072578;28;20447;-59
2021/12/18 11:09:14;;;;;;;17.80;11.70;;;5.40;99.90;;;;;;5087217;28;20467;-59
2021/12/18 11:14:40;;;;;;;19.77;11.00;;;5.60;99.90;;;;;;5072267;28;20765;-60
2021/12/18 11:17:12;;;;;;;13.43;9.73;;;5.50;99.90;;;;;;5088658;28;20459;-60
2021/12/18 11:19:41;;;;;;;17.63;10.77;;;5.70;99.90;;;;;;5087398;28;20459;-59
2021/12/18 11:22:09;;;;;;;14.40;9.93;;;5.50;99.90;;;;;;5085854;28;20550;-60
2021/12/18 11:24:38;;;;;;;16.60;10.30;;;5.50;99.90;;;;;;5081202;28;20447;-59
2021/12/18 11:27:08;;;;;;;16.20;11.00;;;5.40;99.90;;;;;;5078384;28;20792;-60
2021/12/18 11:29:41;;;;;;;14.63;10.37;;;5.10;99.90;;;;;;5077826;28;20629;-59
2021/12/18 11:32:13;;;;;;;19.30;9.43;;;5.10;99.90;;;;;;5078838;28;20455;-59
2021/12/18 11:34:41;;;;;;;20.10;10.23;;;5.00;99.90;;;;;;5078627;28;20481;-59
2021/12/18 11:37:10;;;;;;;14.60;9.90;;;5.10;99.90;;;;;;5079447;28;20465;-60
2021/12/18 11:39:39;;;;;;;16.70;10.30;;;5.10;99.90;;;;;;5077930;28;20480;-60
2021/12/18 11:42:07;;;;;;;13.87;9.33;;;5.20;99.90;;;;;;5082374;28;20538;-59
2021/12/18 11:44:37;;;;;;;15.60;10.50;;;5.30;99.90;;;;;;5081279;28;20440;-59
2021/12/18 11:47:25;;;;;;;17.97;11.37;;;5.30;99.90;;;;;;5081189;28;20445;-59
2021/12/18 11:49:54;;;;;;;15.60;12.10;;;5.20;99.90;;;;;;5081116;28;21031;-59
2021/12/18 11:52:21;;;;;;;16.70;10.97;;;5.10;99.90;;;;;;5081800;28;20541;-59
2021/12/18 11:54:51;;;;;;;14.67;10.20;;;5.30;99.90;;;;;;5082739;28;20506;-59
2021/12/18 11:57:44;;;;;;;13.07;9.40;;;5.20;99.90;;;;;;5084143;28;20444;-59
2021/12/18 12:00:34;;;;;;;14.23;9.90;;;5.10;99.90;;;;;;5083423;28;20464;-59
2021/12/18 12:03:04;;;;;;;16.93;10.40;;;5.10;99.90;;;;;;5083404;28;20443;-59
2021/12/18 12:05:39;;;;;;;15.17;9.80;;;5.10;99.90;;;;;;5082998;28;20535;-59
2021/12/18 12:08:30;;;;;;;16.53;9.60;;;5.20;99.90;;;;;;5084209;28;20451;-59
2021/12/18 12:11:23;;;;;;;13.00;10.20;;;5.00;99.90;;;;;;5078831;28;20478;-59
2021/12/18 12:13:56;;;;;;;10.47;8.40;;;5.00;99.90;;;;;;5083124;28;21013;-59
2021/12/18 12:16:56;;;;;;;15.30;10.10;;;5.20;99.90;;;;;;5082359;28;20454;-59
2021/12/18 12:19:39;;;;;;;12.70;9.70;;;5.30;99.90;;;;;;5083477;28;20465;-59
2021/12/18 12:22:07;;;;;;;14.47;9.60;;;5.20;99.90;;;;;;5084257;28;20513;-59
2021/12/18 12:24:53;;;;;;;14.50;9.50;;;5.30;99.90;;;;;;5084032;28;20523;-59
2021/12/18 12:27:31;;;;;;;11.83;8.07;;;5.40;99.90;;;;;;5084551;28;20454;-61
2021/12/18 12:30:03;;;;;;;15.83;9.60;;;5.40;99.90;;;;;;5083013;28;20471;-59
2021/12/18 12:32:30;;;;;;;13.27;10.20;;;5.50;99.90;;;;;;5084306;28;20475;-59
2021/12/18 12:35:06;;;;;;;12.70;10.17;;;5.40;99.90;;;;;;5084073;28;20518;-59
2021/12/18 12:37:36;;;;;;;13.47;8.70;;;5.20;99.90;;;;;;5083775;28;20463;-59
2021/12/18 12:40:07;;;;;;;17.23;10.17;;;5.40;99.90;;;;;;5082576;28;20828;-59
2021/12/18 12:42:36;;;;;;;14.23;9.97;;;5.40;99.90;;;;;;5073658;28;20444;-59
2021/12/18 12:45:08;;;;;;;12.80;9.07;;;5.30;99.90;;;;;;5091145;28;20982;-59
2021/12/18 12:47:36;;;;;;;12.67;9.23;;;5.10;99.90;;;;;;5092453;28;20451;-59
2021/12/18 12:50:29;;;;;;;15.43;9.20;;;5.20;99.90;;;;;;5087685;28;20472;-58
2021/12/18 12:53:01;;;;;;;16.20;10.83;;;5.10;99.90;;;;;;5073388;28;20971;-58
2021/12/18 12:55:30;;;;;;;12.70;9.53;;;5.20;99.90;;;;;;5092209;28;20482;-58
2021/12/18 12:57:58;;;;;;;13.90;10.23;;;5.10;99.90;;;;;;5073001;28;20446;-59
2021/12/18 13:00:45;;;;;;;12.90;9.30;;;5.00;99.90;;;;;;5091574;28;20977;-58
2021/12/18 13:03:34;;;;;;;12.93;9.80;;;5.20;99.90;;;;;;5079032;28;20448;-59
2021/12/18 13:06:24;;;;;;;12.40;9.50;;;5.30;99.90;;;;;;5071871;28;20842;-59
2021/12/18 13:08:51;;;;;;;14.60;11.37;;;5.50;99.90;;;;;;5073346;28;20474;-59
2021/12/18 13:11:22;;;;;;;14.83;10.07;;;5.30;99.90;;;;;;5084299;28;21003;-60
2021/12/18 13:13:50;;;;;;;15.97;10.07;;;5.20;99.90;;;;;;5094485;28;20903;-60
2021/12/18 13:16:19;;;;;;;16.03;11.17;;;5.30;99.90;;;;;;5094116;28;20476;-59
2021/12/18 13:18:49;;;;;;;18.17;10.83;;;5.30;99.90;;;;;;5094470;28;20539;-59
2021/12/18 13:21:18;;;;;;;13.73;10.60;;;5.10;99.90;;;;;;5094377;28;20890;-59